createdAt,value
2018-04-23T00:00:44.636Z,0.00
2018-04-23T00:01:44.648Z,0.00
2018-04-23T00:03:37.551Z,0.00
2018-04-23T00:04:37.576Z,0.00
2018-04-23T00:06:30.508Z,0.00
2018-04-23T00:07:30.517Z,0.00
2018-04-23T00:09:23.421Z,0.00
2018-04-23T00:10:23.445Z,0.00
2018-04-23T00:12:16.373Z,0.00
2018-04-23T00:13:16.377Z,0.00
2018-04-23T00:15:09.305Z,0.00
2018-04-23T00:16:09.313Z,0.00
2018-04-23T00:18:02.221Z,0.00
2018-04-23T00:19:02.240Z,0.00
2018-04-23T00:20:55.172Z,0.00
2018-04-23T00:21:55.176Z,0.00
2018-04-23T00:23:48.087Z,0.00
2018-04-23T00:24:48.112Z,0.00
2018-04-23T00:26:41.040Z,0.00
2018-04-23T00:27:41.041Z,0.00
2018-04-23T00:29:33.949Z,0.00
2018-04-23T00:30:33.974Z,0.00
2018-04-23T00:32:26.902Z,0.00
2018-04-23T00:33:26.905Z,0.00
2018-04-23T00:35:19.837Z,0.00
2018-04-23T00:36:19.842Z,0.00
2018-04-23T00:38:12.749Z,0.00
2018-04-23T00:39:12.773Z,0.00
2018-04-23T00:41:05.704Z,0.00
2018-04-23T00:42:05.709Z,0.00
2018-04-23T00:43:58.617Z,0.00
2018-04-23T00:44:58.643Z,0.00
2018-04-23T00:46:51.575Z,0.00
2018-04-23T00:47:51.578Z,0.00
2018-04-23T00:49:44.490Z,0.00
2018-04-23T00:50:44.520Z,0.00
2018-04-23T00:52:37.441Z,0.00
2018-04-23T00:53:37.444Z,0.00
2018-04-23T00:55:30.372Z,0.00
2018-04-23T00:56:30.377Z,0.00
2018-04-23T00:58:23.287Z,0.00
2018-04-23T00:59:23.447Z,0.00
2018-04-23T01:01:16.238Z,0.00
2018-04-23T01:02:16.245Z,0.00
2018-04-23T01:04:09.653Z,0.00
2018-04-23T01:05:09.672Z,0.00
2018-04-23T01:07:02.599Z,0.00
2018-04-23T01:08:02.603Z,0.00
2018-04-23T01:09:55.515Z,0.00
2018-04-23T01:10:55.537Z,0.00
2018-04-23T01:12:48.469Z,0.00
2018-04-23T01:13:48.472Z,0.00
2018-04-23T01:15:41.402Z,0.00
2018-04-23T01:16:41.407Z,0.00
2018-04-23T01:18:34.318Z,0.00
2018-04-23T01:19:34.345Z,0.00
2018-04-23T01:21:27.269Z,0.00
2018-04-23T01:22:27.274Z,0.00
2018-04-23T01:24:20.184Z,0.00
2018-04-23T01:25:20.210Z,0.00
2018-04-23T01:27:13.136Z,0.00
2018-04-23T01:28:13.141Z,0.00
2018-04-23T01:30:06.054Z,0.00
2018-04-23T01:31:06.074Z,0.00
2018-04-23T01:32:59.006Z,0.00
2018-04-23T01:33:59.011Z,0.00
2018-04-23T01:35:51.941Z,0.00
2018-04-23T01:36:51.945Z,0.00
2018-04-23T01:38:44.855Z,0.00
2018-04-23T01:39:44.880Z,0.00
2018-04-23T01:41:37.812Z,0.00
2018-04-23T01:42:37.813Z,0.00
2018-04-23T01:44:30.723Z,0.00
2018-04-23T01:45:30.749Z,0.00
2018-04-23T01:47:23.678Z,0.00
2018-04-23T01:48:23.682Z,0.00
2018-04-23T01:50:16.589Z,0.00
2018-04-23T01:51:16.613Z,0.00
2018-04-23T01:53:09.541Z,0.00
2018-04-23T01:54:09.548Z,0.00
2018-04-23T01:56:02.472Z,0.00
2018-04-23T01:57:02.477Z,0.00
2018-04-23T01:58:55.388Z,0.00
2018-04-23T01:59:55.411Z,0.00
2018-04-23T02:01:48.342Z,0.00
2018-04-23T02:02:48.345Z,0.00
2018-04-23T02:04:41.258Z,0.00
2018-04-23T02:05:41.280Z,0.00
2018-04-23T02:07:34.207Z,0.00
2018-04-23T02:08:34.213Z,0.00
2018-04-23T02:10:27.122Z,0.00
2018-04-23T02:11:27.146Z,0.00
2018-04-23T02:13:20.074Z,0.00
2018-04-23T02:14:20.079Z,0.00
2018-04-23T02:16:13.010Z,0.00
2018-04-23T02:17:13.013Z,0.00
2018-04-23T02:19:05.948Z,0.00
2018-04-23T02:20:05.949Z,0.00
2018-04-23T02:21:58.876Z,0.00
2018-04-23T02:22:58.881Z,0.00
2018-04-23T02:24:51.789Z,0.00
2018-04-23T02:25:51.813Z,0.00
2018-04-23T02:27:44.741Z,0.00
2018-04-23T02:28:44.745Z,0.00
2018-04-23T02:30:37.655Z,0.00
2018-04-23T02:31:37.679Z,0.00
2018-04-23T02:33:30.607Z,0.00
2018-04-23T02:34:30.612Z,0.00
2018-04-23T02:36:23.540Z,0.00
2018-04-23T02:37:23.549Z,0.00
2018-04-23T02:39:16.469Z,0.00
2018-04-23T02:40:16.478Z,0.00
2018-04-23T02:42:09.410Z,0.00
2018-04-23T02:43:09.413Z,0.00
2018-04-23T02:45:02.321Z,0.00
2018-04-23T02:46:02.345Z,0.00
2018-04-23T02:47:55.273Z,0.00
2018-04-23T02:48:55.280Z,0.00
2018-04-23T02:50:48.188Z,0.00
2018-04-23T02:51:48.211Z,0.00
2018-04-23T02:53:41.139Z,0.00
2018-04-23T02:54:41.145Z,0.00
2018-04-23T02:56:34.235Z,0.00
2018-04-23T02:57:34.242Z,0.00
2018-04-23T02:59:27.149Z,0.00
2018-04-23T03:00:27.171Z,0.00
2018-04-23T03:02:20.102Z,0.00
2018-04-23T03:03:20.108Z,0.00
2018-04-23T03:05:13.034Z,0.00
2018-04-23T03:06:13.060Z,0.00
2018-04-23T03:08:05.998Z,0.00
2018-04-23T03:09:06.002Z,0.00
2018-04-23T03:10:58.911Z,0.00
2018-04-23T03:11:58.936Z,0.00
2018-04-23T03:13:52.060Z,0.00
2018-04-23T03:14:52.063Z,0.00
2018-04-23T03:16:45.218Z,0.00
2018-04-23T03:17:45.220Z,0.00
2018-04-23T03:19:38.132Z,0.00
2018-04-23T03:20:38.152Z,0.00
2018-04-23T03:22:31.081Z,0.00
2018-04-23T03:23:31.085Z,0.00
2018-04-23T03:25:24.003Z,0.00
2018-04-23T03:26:24.029Z,0.00
2018-04-23T03:28:16.955Z,0.00
2018-04-23T03:29:16.961Z,0.00
2018-04-23T03:31:09.868Z,0.00
2018-04-23T03:32:09.893Z,0.00
2018-04-23T03:34:02.822Z,0.00
2018-04-23T03:35:02.822Z,0.00
2018-04-23T03:36:55.753Z,0.00
2018-04-23T03:37:55.755Z,0.00
2018-04-23T03:39:48.665Z,0.00
2018-04-23T03:40:48.687Z,0.00
2018-04-23T03:42:41.617Z,0.00
2018-04-23T03:43:41.623Z,0.00
2018-04-23T03:45:34.527Z,4.00
2018-04-23T03:46:34.550Z,4.00
2018-04-23T03:48:27.480Z,4.00
2018-04-23T03:49:27.493Z,0.00
2018-04-23T03:51:20.399Z,0.00
2018-04-23T03:52:20.419Z,0.00
2018-04-23T03:54:13.345Z,4.00
2018-04-23T03:55:13.349Z,8.00
2018-04-23T03:57:06.275Z,8.00
2018-04-23T03:58:06.281Z,8.00
2018-04-23T03:59:59.190Z,16.00
2018-04-23T04:00:59.214Z,16.00
2018-04-23T04:02:52.145Z,28.00
2018-04-23T04:03:52.149Z,32.00
2018-04-23T04:05:45.062Z,40.00
2018-04-23T04:06:45.092Z,52.00
2018-04-23T04:08:38.012Z,64.00
2018-04-23T04:09:38.019Z,72.00
2018-04-23T04:11:30.927Z,88.00
2018-04-23T04:12:30.951Z,104.00
2018-04-23T04:14:23.876Z,116.00
2018-04-23T04:15:23.883Z,128.00
2018-04-23T04:17:16.811Z,148.00
2018-04-23T04:18:16.815Z,152.00
2018-04-23T04:20:09.727Z,156.00
2018-04-23T04:21:09.752Z,164.00
2018-04-23T04:23:02.680Z,196.00
2018-04-23T04:24:02.686Z,232.00
2018-04-23T04:25:55.597Z,332.00
2018-04-23T04:26:55.620Z,384.00
2018-04-23T04:28:48.553Z,460.00
2018-04-23T04:29:48.553Z,488.00
2018-04-23T04:31:41.462Z,544.00
2018-04-23T04:32:41.486Z,568.00
2018-04-23T04:34:34.413Z,624.00
2018-04-23T04:35:34.488Z,668.00
2018-04-23T04:37:27.348Z,724.00
2018-04-23T04:38:27.381Z,720.00
2018-04-23T04:40:20.265Z,732.00
2018-04-23T04:41:20.286Z,792.00
2018-04-23T04:43:13.221Z,944.00
2018-04-23T04:44:13.220Z,1004.00
2018-04-23T04:46:06.126Z,1168.00
2018-04-23T04:47:06.151Z,1284.00
2018-04-23T04:48:59.096Z,1564.00
2018-04-23T04:49:59.095Z,1748.00
2018-04-23T04:51:52.002Z,2040.00
2018-04-23T04:52:52.025Z,2104.00
2018-04-23T04:54:44.955Z,2068.00
2018-04-23T04:55:44.957Z,2068.00
2018-04-23T04:57:37.890Z,2156.00
2018-04-23T04:58:37.900Z,2228.00
2018-04-23T05:00:30.801Z,2388.00
2018-04-23T05:01:30.827Z,2424.00
2018-04-23T05:03:23.801Z,2228.00
2018-04-23T05:04:23.758Z,2112.00
2018-04-23T05:06:16.669Z,1900.00
2018-04-23T05:07:16.689Z,1760.00
2018-04-23T05:09:09.623Z,1580.00
2018-04-23T05:10:09.625Z,1520.00
2018-04-23T05:12:02.531Z,1464.00
2018-04-23T05:13:02.559Z,1472.00
2018-04-23T05:14:55.483Z,1656.00
2018-04-23T05:15:55.488Z,1716.00
2018-04-23T05:17:48.419Z,1816.00
2018-04-23T05:18:48.426Z,1876.00
2018-04-23T05:20:41.337Z,2228.00
2018-04-23T05:21:41.357Z,2448.00
2018-04-23T05:23:34.289Z,2816.00
2018-04-23T05:24:34.298Z,2708.00
2018-04-23T05:26:27.199Z,2912.00
2018-04-23T05:27:27.224Z,2916.00
2018-04-23T05:29:20.153Z,2300.00
2018-04-23T05:30:20.158Z,2472.00
2018-04-23T05:32:13.067Z,3004.00
2018-04-23T05:33:13.092Z,3256.00
2018-04-23T05:35:06.025Z,3384.00
2018-04-23T05:36:06.028Z,3260.00
2018-04-23T05:37:58.969Z,2680.00
2018-04-23T05:38:58.971Z,2584.00
2018-04-23T05:40:51.915Z,2804.00
2018-04-23T05:41:51.938Z,2732.00
2018-04-23T05:43:44.870Z,3064.00
2018-04-23T05:44:44.872Z,3168.00
2018-04-23T05:46:37.790Z,3516.00
2018-04-23T05:47:37.809Z,3688.00
2018-04-23T05:49:30.741Z,4096.00
2018-04-23T05:50:30.746Z,4472.00
2018-04-23T05:52:23.659Z,5016.00
2018-04-23T05:53:23.687Z,5380.00
2018-04-23T05:55:16.613Z,6144.00
2018-04-23T05:56:16.625Z,6648.00
2018-04-23T05:58:09.576Z,8268.00
2018-04-23T05:59:09.586Z,8496.00
2018-04-23T06:01:02.499Z,7620.00
2018-04-23T06:02:02.522Z,7520.00
2018-04-23T06:03:55.450Z,8436.00
2018-04-23T06:04:55.458Z,10808.00
2018-04-23T06:06:48.371Z,13020.00
2018-04-23T06:07:48.400Z,13136.00
2018-04-23T06:09:41.329Z,12200.00
2018-04-23T06:10:41.338Z,12388.00
2018-04-23T06:12:34.247Z,9060.00
2018-04-23T06:13:34.278Z,8404.00
2018-04-23T06:15:27.204Z,8512.00
2018-04-23T06:16:27.210Z,9708.00
2018-04-23T06:18:20.146Z,9976.00
2018-04-23T06:19:20.156Z,11148.00
2018-04-23T06:21:13.071Z,9460.00
2018-04-23T06:22:13.097Z,6828.00
2018-04-23T06:24:06.031Z,8024.00
2018-04-23T06:25:06.040Z,10908.00
2018-04-23T06:26:58.955Z,8452.00
2018-04-23T06:27:58.981Z,8696.00
2018-04-23T06:29:51.918Z,11748.00
2018-04-23T06:30:51.925Z,8064.00
2018-04-23T06:32:44.839Z,8700.00
2018-04-23T06:33:44.885Z,14564.00
2018-04-23T06:35:37.800Z,17088.00
2018-04-23T06:36:37.810Z,11192.00
2018-04-23T06:38:30.740Z,20000.00
2018-04-23T06:39:30.751Z,19744.00
2018-04-23T06:41:23.662Z,18112.00
2018-04-23T06:42:23.693Z,19392.00
2018-04-23T06:44:16.622Z,20416.00
2018-04-23T06:45:16.634Z,18176.00
2018-04-23T06:47:09.548Z,17856.00
2018-04-23T06:48:09.578Z,16288.00
2018-04-23T06:50:02.512Z,12728.00
2018-04-23T06:51:02.523Z,15472.00
2018-04-23T06:52:55.440Z,19840.00
2018-04-23T06:53:55.467Z,13800.00
2018-04-23T06:55:48.414Z,20864.00
2018-04-23T06:56:48.416Z,18784.00
2018-04-23T06:58:41.354Z,14516.00
2018-04-23T06:59:41.365Z,14424.00
2018-04-23T07:01:34.289Z,13672.00
2018-04-23T07:02:34.315Z,11904.00
2018-04-23T07:04:27.253Z,8740.00
2018-04-23T07:05:27.265Z,7472.00
2018-04-23T07:07:20.177Z,7324.00
2018-04-23T07:08:20.209Z,7964.00
2018-04-23T07:10:13.144Z,8812.00
2018-04-23T07:11:13.153Z,8416.00
2018-04-23T07:13:06.068Z,7924.00
2018-04-23T07:14:06.099Z,7796.00
2018-04-23T07:15:59.033Z,8224.00
2018-04-23T07:16:59.042Z,8240.00
2018-04-23T07:18:51.973Z,7860.00
2018-04-23T07:19:51.986Z,7300.00
2018-04-23T07:21:44.898Z,8104.00
2018-04-23T07:22:44.923Z,8632.00
2018-04-23T07:24:37.861Z,8636.00
2018-04-23T07:25:37.869Z,8816.00
2018-04-23T07:27:30.784Z,9112.00
2018-04-23T07:28:30.813Z,8832.00
2018-04-23T07:30:23.756Z,8416.00
2018-04-23T07:31:23.763Z,8140.00
2018-04-23T07:33:16.688Z,8348.00
2018-04-23T07:34:16.707Z,8732.00
2018-04-23T07:36:09.646Z,7484.00
2018-04-23T07:37:09.653Z,7560.00
2018-04-23T07:39:02.588Z,8492.00
2018-04-23T07:40:02.599Z,9024.00
2018-04-23T07:41:55.510Z,9944.00
2018-04-23T07:42:55.539Z,10432.00
2018-04-23T07:44:48.471Z,9740.00
2018-04-23T07:45:48.480Z,9612.00
2018-04-23T07:47:41.396Z,8620.00
2018-04-23T07:48:41.423Z,8836.00
2018-04-23T07:50:34.357Z,9564.00
2018-04-23T07:51:34.369Z,9908.00
2018-04-23T07:53:27.282Z,9620.00
2018-04-23T07:54:27.308Z,10116.00
2018-04-23T07:56:20.243Z,11112.00
2018-04-23T07:57:20.254Z,9944.00
2018-04-23T07:59:13.222Z,8704.00
2018-04-23T08:00:13.229Z,8572.00
2018-04-23T08:02:06.147Z,10368.00
2018-04-23T08:03:06.175Z,10596.00
2018-04-23T08:04:59.108Z,9672.00
2018-04-23T08:05:59.118Z,9920.00
2018-04-23T08:07:52.041Z,10308.00
2018-04-23T08:08:52.065Z,10560.00
2018-04-23T08:10:45.010Z,12188.00
2018-04-23T08:11:45.023Z,12696.00
2018-04-23T08:13:37.938Z,11752.00
2018-04-23T08:14:37.965Z,11548.00
2018-04-23T08:16:30.904Z,10352.00
2018-04-23T08:17:30.914Z,11048.00
2018-04-23T08:19:23.860Z,9972.00
2018-04-23T08:20:23.867Z,10792.00
2018-04-23T08:22:16.786Z,12952.00
2018-04-23T08:23:16.814Z,12820.00
2018-04-23T08:25:09.748Z,12320.00
2018-04-23T08:26:09.760Z,11200.00
2018-04-23T08:28:03.169Z,10700.00
2018-04-23T08:29:03.196Z,11108.00
2018-04-23T08:30:56.134Z,9704.00
2018-04-23T08:31:56.144Z,10560.00
2018-04-23T08:33:49.064Z,9712.00
2018-04-23T08:34:49.089Z,8264.00
2018-04-23T08:36:42.522Z,8740.00
2018-04-23T08:37:42.532Z,9388.00
2018-04-23T08:39:35.468Z,10668.00
2018-04-23T08:40:35.478Z,11276.00
2018-04-23T08:42:28.407Z,10784.00
2018-04-23T08:43:28.431Z,11528.00
2018-04-23T08:45:21.383Z,10460.00
2018-04-23T08:46:21.385Z,9640.00
2018-04-23T08:48:14.308Z,11124.00
2018-04-23T08:49:14.341Z,9036.00
2018-04-23T08:51:07.285Z,8596.00
2018-04-23T08:52:07.290Z,12080.00
2018-04-23T08:54:00.702Z,9480.00
2018-04-23T08:55:00.730Z,8068.00
2018-04-23T08:56:53.667Z,7644.00
2018-04-23T08:57:53.685Z,9952.00
2018-04-23T08:59:46.611Z,9576.00
2018-04-23T09:00:46.622Z,9560.00
2018-04-23T09:02:39.538Z,6356.00
2018-04-23T09:03:39.566Z,7340.00
2018-04-23T09:05:32.504Z,8640.00
2018-04-23T09:06:32.511Z,6824.00
2018-04-23T09:08:25.433Z,5408.00
2018-04-23T09:09:25.507Z,5564.00
2018-04-23T09:11:18.394Z,5288.00
2018-04-23T09:12:18.401Z,5236.00
2018-04-23T09:14:11.322Z,5280.00
2018-04-23T09:15:11.348Z,5576.00
2018-04-23T09:17:04.786Z,5572.00
2018-04-23T09:18:04.792Z,6348.00
2018-04-23T09:19:57.724Z,5672.00
2018-04-23T09:20:57.731Z,5712.00
2018-04-23T09:22:50.646Z,5968.00
2018-04-23T09:23:50.675Z,6052.00
2018-04-23T09:25:43.610Z,7744.00
2018-04-23T09:26:43.618Z,8904.00
2018-04-23T09:28:36.533Z,10772.00
2018-04-23T09:29:36.561Z,9688.00
2018-04-23T09:31:29.496Z,10320.00
2018-04-23T09:32:29.504Z,11780.00
2018-04-23T09:34:22.422Z,12616.00
2018-04-23T09:35:22.449Z,11900.00
2018-04-23T09:37:15.384Z,13196.00
2018-04-23T09:38:15.394Z,13220.00
2018-04-23T09:40:08.352Z,13992.00
2018-04-23T09:41:08.345Z,13788.00
2018-04-23T09:43:01.259Z,10220.00
2018-04-23T09:44:01.286Z,9948.00
2018-04-23T09:45:54.232Z,11296.00
2018-04-23T09:46:54.255Z,10696.00
2018-04-23T09:48:47.157Z,10052.00
2018-04-23T09:49:47.186Z,10388.00
2018-04-23T09:51:40.134Z,12384.00
2018-04-23T09:52:40.145Z,12548.00
2018-04-23T09:54:33.065Z,13864.00
2018-04-23T09:55:33.093Z,12616.00
2018-04-23T09:57:26.048Z,11228.00
2018-04-23T09:58:26.054Z,10292.00
2018-04-23T10:00:19.017Z,9312.00
2018-04-23T10:01:19.007Z,9924.00
2018-04-23T10:03:11.934Z,6628.00
2018-04-23T10:04:11.959Z,6108.00
2018-04-23T10:06:04.938Z,5556.00
2018-04-23T10:07:04.914Z,5700.00
2018-04-23T10:08:57.836Z,6588.00
2018-04-23T10:09:57.867Z,7564.00
2018-04-23T10:11:51.303Z,8668.00
2018-04-23T10:12:51.317Z,9236.00
2018-04-23T10:14:44.229Z,9724.00
2018-04-23T10:15:44.257Z,10668.00
2018-04-23T10:17:37.197Z,11428.00
2018-04-23T10:18:37.208Z,9972.00
2018-04-23T10:20:30.174Z,9140.00
2018-04-23T10:21:30.155Z,11288.00
2018-04-23T10:23:23.074Z,12500.00
2018-04-23T10:24:23.107Z,11784.00
2018-04-23T10:26:16.039Z,11476.00
2018-04-23T10:27:16.049Z,11316.00
2018-04-23T10:29:08.978Z,12408.00
2018-04-23T10:30:08.998Z,12588.00
2018-04-23T10:32:02.432Z,11356.00
2018-04-23T10:33:02.443Z,10184.00
2018-04-23T10:34:55.401Z,9600.00
2018-04-23T10:35:55.398Z,10080.00
2018-04-23T10:37:48.830Z,10236.00
2018-04-23T10:38:48.842Z,9880.00
2018-04-23T10:40:41.803Z,9316.00
2018-04-23T10:41:41.793Z,9136.00
2018-04-23T10:43:34.732Z,9612.00
2018-04-23T10:44:34.746Z,9736.00
2018-04-23T10:46:27.744Z,8252.00
2018-04-23T10:47:27.755Z,7192.00
2018-04-23T10:49:20.791Z,6608.00
2018-04-23T10:50:20.816Z,6304.00
2018-04-23T10:52:13.857Z,7320.00
2018-04-23T10:53:13.868Z,7896.00
2018-04-23T10:55:06.897Z,9256.00
2018-04-23T10:56:06.928Z,9364.00
2018-04-23T10:57:59.865Z,9356.00
2018-04-23T10:58:59.875Z,8824.00
2018-04-23T11:00:52.831Z,6524.00
2018-04-23T11:01:52.879Z,5604.00
2018-04-23T11:03:45.859Z,5724.00
2018-04-23T11:04:45.891Z,7124.00
2018-04-23T11:06:38.939Z,7764.00
2018-04-23T11:07:38.943Z,7240.00
2018-04-23T11:09:31.970Z,7732.00
2018-04-23T11:10:31.997Z,8304.00
2018-04-23T11:12:24.939Z,8420.00
2018-04-23T11:13:24.946Z,7624.00
2018-04-23T11:15:17.892Z,7832.00
2018-04-23T11:17:30.916Z,10256.00
2018-04-23T11:18:30.925Z,11304.00
2018-04-23T11:20:24.361Z,10600.00
2018-04-23T11:21:24.391Z,10768.00
2018-04-23T11:23:17.438Z,12144.00
2018-04-23T11:24:17.450Z,12812.00
2018-04-23T11:26:10.493Z,12536.00
2018-04-23T11:27:10.506Z,12612.00
2018-04-23T11:29:03.532Z,12736.00
2018-04-23T11:30:03.564Z,11740.00
2018-04-23T11:31:56.609Z,10516.00
2018-04-23T11:32:56.619Z,9616.00
2018-04-23T11:34:50.061Z,9260.00
2018-04-23T11:35:50.089Z,9820.00
2018-04-23T11:37:43.131Z,8932.00
2018-04-23T11:38:43.193Z,8484.00
2018-04-23T11:40:36.167Z,7916.00
2018-04-23T11:41:36.196Z,7760.00
2018-04-23T11:43:29.242Z,6772.00
2018-04-23T11:44:29.254Z,6200.00
2018-04-23T11:46:22.305Z,7208.00
2018-04-23T11:47:22.308Z,7092.00
2018-04-23T11:49:15.334Z,6728.00
2018-04-23T11:50:15.367Z,6172.00
2018-04-23T11:52:08.412Z,5920.00
2018-04-23T11:53:08.470Z,6164.00
2018-04-23T11:55:01.447Z,6408.00
2018-04-23T11:56:01.477Z,7000.00
2018-04-23T11:57:54.524Z,8160.00
2018-04-23T11:58:54.551Z,9396.00
2018-04-23T12:00:47.562Z,10084.00
2018-04-23T12:01:47.592Z,10020.00
2018-04-23T12:03:40.638Z,11792.00
2018-04-23T12:04:40.647Z,11032.00
2018-04-23T12:06:34.105Z,10460.00
2018-04-23T12:07:34.113Z,9204.00
2018-04-23T12:09:27.146Z,9992.00
2018-04-23T12:10:27.175Z,9100.00
2018-04-23T12:12:20.116Z,7512.00
2018-04-23T12:13:20.131Z,6168.00
2018-04-23T12:15:13.149Z,5080.00
2018-04-23T12:16:13.189Z,4868.00
2018-04-23T12:18:06.228Z,4596.00
2018-04-23T12:19:06.235Z,4600.00
2018-04-23T12:20:59.331Z,4600.00
2018-04-23T12:21:59.292Z,4596.00
2018-04-23T12:23:52.334Z,4620.00
2018-04-23T12:24:52.345Z,4300.00
2018-04-23T12:26:45.396Z,4512.00
2018-04-23T12:27:45.402Z,4632.00
2018-04-23T12:29:38.428Z,4732.00
2018-04-23T12:30:38.461Z,4816.00
2018-04-23T12:32:31.917Z,4684.00
2018-04-23T12:33:31.927Z,4656.00
2018-04-23T12:35:24.950Z,4928.00
2018-04-23T12:36:24.980Z,5184.00
2018-04-23T12:38:18.029Z,5556.00
2018-04-23T12:39:18.044Z,5468.00
2018-04-23T12:41:10.963Z,5296.00
2018-04-23T12:42:10.990Z,5280.00
2018-04-23T12:44:04.036Z,5160.00
2018-04-23T12:45:04.047Z,4992.00
2018-04-23T12:46:57.092Z,4896.00
2018-04-23T12:47:57.114Z,4880.00
2018-04-23T12:49:50.128Z,4864.00
2018-04-23T12:50:50.158Z,4876.00
2018-04-23T12:52:43.105Z,5032.00
2018-04-23T12:53:43.112Z,4952.00
2018-04-23T12:55:36.140Z,4852.00
2018-04-23T12:56:36.169Z,4812.00
2018-04-23T12:58:29.119Z,4852.00
2018-04-23T12:59:29.122Z,5116.00
2018-04-23T13:01:22.052Z,5504.00
2018-04-23T13:02:22.080Z,5548.00
2018-04-23T13:04:15.124Z,5428.00
2018-04-23T13:05:15.132Z,5356.00
2018-04-23T13:07:08.200Z,5480.00
2018-04-23T13:08:08.190Z,5596.00
2018-04-23T13:10:01.255Z,5404.00
2018-04-23T13:11:01.245Z,5264.00
2018-04-23T13:12:54.192Z,5284.00
2018-04-23T13:13:54.199Z,5316.00
2018-04-23T13:15:47.228Z,5584.00
2018-04-23T13:16:47.256Z,5624.00
2018-04-23T13:18:40.713Z,5780.00
2018-04-23T13:19:40.726Z,6296.00
2018-04-23T13:21:33.752Z,8024.00
2018-04-23T13:22:33.836Z,7296.00
2018-04-23T13:24:26.827Z,6560.00
2018-04-23T13:25:26.831Z,7256.00
2018-04-23T13:27:19.883Z,7236.00
2018-04-23T13:28:19.890Z,7396.00
2018-04-23T13:30:13.328Z,7648.00
2018-04-23T13:31:13.357Z,9216.00
2018-04-23T13:33:06.405Z,9920.00
2018-04-23T13:34:06.413Z,9160.00
2018-04-23T13:35:59.444Z,10628.00
2018-04-23T13:36:59.469Z,10160.00
2018-04-23T13:38:52.924Z,9632.00
2018-04-23T13:39:52.938Z,9796.00
2018-04-23T13:41:45.965Z,7368.00
2018-04-23T13:42:45.996Z,6448.00
2018-04-23T13:44:39.037Z,5088.00
2018-04-23T13:45:39.046Z,4680.00
2018-04-23T13:47:32.075Z,4444.00
2018-04-23T13:48:32.103Z,4764.00
2018-04-23T13:50:25.149Z,6736.00
2018-04-23T13:51:25.158Z,7488.00
2018-04-23T13:53:18.207Z,6572.00
2018-04-23T13:54:18.216Z,6824.00
2018-04-23T13:56:16.166Z,6016.00
2018-04-23T13:57:23.363Z,5300.00
2018-04-23T13:59:09.135Z,4648.00
2018-04-23T14:00:09.141Z,4492.00
2018-04-23T14:02:02.077Z,4292.00
2018-04-23T14:03:02.097Z,4216.00
2018-04-23T14:04:55.142Z,4048.00
2018-04-23T14:05:55.153Z,4276.00
2018-04-23T14:07:48.175Z,5252.00
2018-04-23T14:08:48.204Z,5204.00
2018-04-23T14:10:42.693Z,6292.00
2018-04-23T14:11:42.694Z,5856.00
2018-04-23T14:13:35.621Z,4876.00
2018-04-23T14:14:35.652Z,4652.00
2018-04-23T14:16:28.695Z,4400.00
2018-04-23T14:17:28.706Z,4360.00
2018-04-23T14:19:21.650Z,4304.00
2018-04-23T14:20:21.659Z,4380.00
2018-04-23T14:22:14.584Z,4304.00
2018-04-23T14:23:14.612Z,4400.00
2018-04-23T14:25:07.557Z,5352.00
2018-04-23T14:26:07.566Z,5812.00
2018-04-23T14:28:00.493Z,5904.00
2018-04-23T14:29:00.520Z,6092.00
2018-04-23T14:30:53.468Z,6972.00
2018-04-23T14:31:53.476Z,6928.00
2018-04-23T14:33:46.503Z,6372.00
2018-04-23T14:34:46.532Z,6240.00
2018-04-23T14:36:39.991Z,6004.00
2018-04-23T14:37:40.020Z,6856.00
2018-04-23T14:39:33.044Z,6392.00
2018-04-23T14:40:33.053Z,5844.00
2018-04-23T14:42:25.979Z,6068.00
2018-04-23T14:43:26.012Z,6324.00
2018-04-23T14:45:18.960Z,6916.00
2018-04-23T14:46:18.961Z,6900.00
2018-04-23T14:48:11.888Z,7100.00
2018-04-23T14:49:11.914Z,7188.00
2018-04-23T14:51:04.871Z,7312.00
2018-04-23T14:52:04.871Z,7372.00
2018-04-23T14:53:57.898Z,7392.00
2018-04-23T14:54:57.926Z,7392.00
2018-04-23T14:56:52.405Z,7636.00
2018-04-23T14:57:52.416Z,7932.00
2018-04-23T14:59:45.340Z,8772.00
2018-04-23T15:00:45.367Z,9060.00
2018-04-23T15:02:38.313Z,9088.00
2018-04-23T15:03:38.321Z,8988.00
2018-04-23T15:05:31.371Z,8776.00
2018-04-23T15:06:31.380Z,8648.00
2018-04-23T15:08:24.338Z,8260.00
2018-04-23T15:09:24.332Z,8104.00
2018-04-23T15:11:17.277Z,8172.00
2018-04-23T15:12:17.286Z,8316.00
2018-04-23T15:14:10.314Z,8540.00
2018-04-23T15:15:10.346Z,8648.00
2018-04-23T15:17:03.289Z,8948.00
2018-04-23T15:18:03.294Z,8800.00
2018-04-23T15:19:56.735Z,8492.00
2018-04-23T15:20:56.765Z,8456.00
2018-04-23T15:22:49.809Z,8828.00
2018-04-23T15:23:49.818Z,9000.00
2018-04-23T15:25:42.846Z,9184.00
2018-04-23T15:26:42.874Z,9084.00
2018-04-23T15:28:36.377Z,8564.00
2018-04-23T15:29:36.344Z,8144.00
2018-04-23T15:31:29.795Z,7904.00
2018-04-23T15:32:29.806Z,7760.00
2018-04-23T15:34:23.249Z,7320.00
2018-04-23T15:35:23.273Z,7104.00
2018-04-23T15:37:17.243Z,7088.00
2018-04-23T15:38:17.248Z,7252.00
2018-04-23T15:40:10.176Z,7208.00
2018-04-23T15:41:10.261Z,7004.00
2018-04-23T15:43:06.218Z,6660.00
2018-04-23T15:44:06.226Z,6532.00
2018-04-23T15:45:59.256Z,6264.00
2018-04-23T15:46:59.283Z,6216.00
2018-04-23T15:48:52.228Z,6372.00
2018-04-23T15:49:52.237Z,6520.00
2018-04-23T15:51:45.183Z,6808.00
2018-04-23T15:52:45.226Z,6988.00
2018-04-23T15:54:38.122Z,7300.00
2018-04-23T15:55:38.146Z,7432.00
2018-04-23T15:57:31.192Z,7532.00
2018-04-23T15:58:31.203Z,7536.00
2018-04-23T16:00:24.640Z,7560.00
2018-04-23T16:01:24.666Z,7532.00
2018-04-23T16:03:17.619Z,7412.00
2018-04-23T16:04:17.623Z,7344.00
2018-04-23T16:06:10.650Z,7188.00
2018-04-23T16:07:10.679Z,7076.00
2018-04-23T16:09:03.623Z,6836.00
2018-04-23T16:10:03.636Z,6724.00
2018-04-23T16:11:56.557Z,6592.00
2018-04-23T16:12:56.583Z,6520.00
2018-04-23T16:14:50.046Z,6408.00
2018-04-23T16:15:50.055Z,6368.00
2018-04-23T16:17:43.509Z,6352.00
2018-04-23T16:18:43.517Z,6360.00
2018-04-23T16:20:37.981Z,6396.00
2018-04-23T16:21:38.010Z,6428.00
2018-04-23T16:23:30.956Z,6540.00
2018-04-23T16:24:30.971Z,6668.00
2018-04-23T16:26:23.885Z,7080.00
2018-04-23T16:27:23.915Z,7220.00
2018-04-23T16:29:16.861Z,7248.00
2018-04-23T16:30:16.867Z,7212.00
2018-04-23T16:32:09.793Z,7372.00
2018-04-23T16:33:09.820Z,7524.00
2018-04-23T16:35:02.791Z,7752.00
2018-04-23T16:36:02.790Z,7688.00
2018-04-23T16:37:55.831Z,7064.00
2018-04-23T16:38:55.837Z,6608.00
2018-04-23T16:40:48.786Z,5744.00
2018-04-23T16:41:48.792Z,5424.00
2018-04-23T16:43:41.835Z,4928.00
2018-04-23T16:44:41.845Z,4680.00
2018-04-23T16:46:34.877Z,4480.00
2018-04-23T16:47:34.909Z,4400.00
2018-04-23T16:49:27.951Z,4104.00
2018-04-23T16:50:27.957Z,3960.00
2018-04-23T16:52:21.396Z,3788.00
2018-04-23T16:53:21.423Z,3620.00
2018-04-23T16:55:14.367Z,3364.00
2018-04-23T16:56:14.372Z,3320.00
2018-04-23T16:58:07.303Z,3248.00
2018-04-23T16:59:07.328Z,3188.00
2018-04-23T17:01:01.814Z,3104.00
2018-04-23T17:02:01.821Z,3108.00
2018-04-23T17:03:55.277Z,3068.00
2018-04-23T17:04:55.282Z,3056.00
2018-04-23T17:06:48.198Z,2976.00
2018-04-23T17:07:48.232Z,2936.00
2018-04-23T17:09:41.698Z,2852.00
2018-04-23T17:10:41.709Z,2804.00
2018-04-23T17:12:35.144Z,2732.00
2018-04-23T17:13:35.169Z,2712.00
2018-04-23T17:15:28.114Z,2676.00
2018-04-23T17:16:28.122Z,2640.00
2018-04-23T17:18:21.053Z,2576.00
2018-04-23T17:19:21.079Z,2552.00
2018-04-23T17:21:14.535Z,2536.00
2018-04-23T17:22:14.545Z,2516.00
2018-04-23T17:24:07.459Z,2536.00
2018-04-23T17:25:07.488Z,2536.00
2018-04-23T17:27:00.471Z,2540.00
2018-04-23T17:28:00.451Z,2536.00
2018-04-23T17:29:53.396Z,2532.00
2018-04-23T17:30:53.403Z,2528.00
2018-04-23T17:32:46.330Z,2504.00
2018-04-23T17:33:46.357Z,2464.00
2018-04-23T17:35:39.305Z,2340.00
2018-04-23T17:36:39.317Z,2280.00
2018-04-23T17:38:32.238Z,2168.00
2018-04-23T17:39:32.262Z,2120.00
2018-04-23T17:41:25.212Z,2060.00
2018-04-23T17:42:25.219Z,2028.00
2018-04-23T17:44:18.147Z,1968.00
2018-04-23T17:45:18.174Z,1940.00